sensor_id;sensor_type;location;lat;lon;timestamp;pressure;altitude;pressure_sealevel;temperature;humidity
12799;BME280;19250;42.646;26.980;2023-04-26T00:01:06;97999.50;;;15.11;100.00
12799;BME280;19250;42.646;26.980;2023-04-26T00:03:33;97994.09;;;15.31;100.00
12799;BME280;19250;42.646;26.980;2023-04-26T00:06:00;97986.00;;;14.01;100.00
12799;BME280;19250;42.646;26.980;2023-04-26T00:08:30;97977.47;;;13.39;100.00
12799;BME280;19250;42.646;26.980;2023-04-26T00:10:57;97976.91;;;13.76;100.00
12799;BME280;19250;42.646;26.980;2023-04-26T00:13:25;97980.25;;;14.17;100.00
12799;BME280;19250;42.646;26.980;2023-04-26T00:15:52;97983.97;;;14.30;100.00
12799;BME280;19250;42.646;26.980;2023-04-26T00:18:20;97983.13;;;14.68;100.00
12799;BME280;19250;42.646;26.980;2023-04-26T00:20:48;97989.88;;;14.97;100.00
12799;BME280;19250;42.646;26.980;2023-04-26T00:23:16;97979.13;;;14.97;100.00
12799;BME280;19250;42.646;26.980;2023-04-26T00:25:43;97978.91;;;14.92;100.00
12799;BME280;19250;42.646;26.980;2023-04-26T00:28:10;97976.72;;;14.63;100.00
12799;BME280;19250;42.646;26.980;2023-04-26T00:30:37;97972.22;;;14.50;100.00
12799;BME280;19250;42.646;26.980;2023-04-26T00:33:06;97968.31;;;14.40;100.00
12799;BME280;19250;42.646;26.980;2023-04-26T00:35:36;97976.13;;;14.08;100.00
12799;BME280;19250;42.646;26.980;2023-04-26T00:38:04;97965.81;;;13.73;100.00
12799;BME280;19250;42.646;26.980;2023-04-26T00:40:31;97967.84;;;13.57;100.00
12799;BME280;19250;42.646;26.980;2023-04-26T00:43:00;97951.34;;;13.54;100.00
12799;BME280;19250;42.646;26.980;2023-04-26T00:45:29;97971.97;;;13.67;100.00
12799;BME280;19250;42.646;26.980;2023-04-26T00:47:57;97969.03;;;13.55;100.00
12799;BME280;19250;42.646;26.980;2023-04-26T00:50:27;97964.50;;;13.49;100.00
12799;BME280;19250;42.646;26.980;2023-04-26T00:52:56;97963.28;;;13.51;100.00
12799;BME280;19250;42.646;26.980;2023-04-26T00:55:24;97973.59;;;13.61;100.00
12799;BME280;19250;42.646;26.980;2023-04-26T00:57:52;97965.38;;;13.62;100.00
12799;BME280;19250;42.646;26.980;2023-04-26T01:00:20;97964.97;;;13.92;100.00
12799;BME280;19250;42.646;26.980;2023-04-26T01:02:47;97965.41;;;13.95;100.00
12799;BME280;19250;42.646;26.980;2023-04-26T01:05:14;97970.16;;;13.93;100.00
12799;BME280;19250;42.646;26.980;2023-04-26T01:07:42;97973.44;;;13.89;100.00
12799;BME280;19250;42.646;26.980;2023-04-26T01:10:11;97971.19;;;14.12;100.00
12799;BME280;19250;42.646;26.980;2023-04-26T01:12:38;97964.41;;;14.42;100.00
12799;BME280;19250;42.646;26.980;2023-04-26T01:15:07;97962.13;;;14.39;100.00
12799;BME280;19250;42.646;26.980;2023-04-26T01:17:34;97956.53;;;14.41;100.00
12799;BME280;19250;42.646;26.980;2023-04-26T01:20:02;97963.53;;;14.61;100.00
12799;BME280;19250;42.646;26.980;2023-04-26T01:22:33;97964.56;;;14.54;100.00
12799;BME280;19250;42.646;26.980;2023-04-26T01:25:03;97964.56;;;14.67;100.00
12799;BME280;19250;42.646;26.980;2023-04-26T01:27:32;97963.09;;;14.71;100.00
12799;BME280;19250;42.646;26.980;2023-04-26T01:29:59;97960.59;;;14.83;100.00
12799;BME280;19250;42.646;26.980;2023-04-26T01:32:26;97961.75;;;15.06;100.00
12799;BME280;19250;42.646;26.980;2023-04-26T01:34:54;97960.66;;;15.20;100.00
12799;BME280;19250;42.646;26.980;2023-04-26T01:37:21;97959.25;;;15.11;100.00
12799;BME280;19250;42.646;26.980;2023-04-26T01:39:51;97961.56;;;15.01;100.00
12799;BME280;19250;42.646;26.980;2023-04-26T01:42:18;97951.22;;;15.05;100.00
12799;BME280;19250;42.646;26.980;2023-04-26T01:44:45;97945.84;;;14.98;100.00
12799;BME280;19250;42.646;26.980;2023-04-26T01:47:12;97939.25;;;15.07;100.00
12799;BME280;19250;42.646;26.980;2023-04-26T01:49:40;97951.41;;;15.10;100.00
12799;BME280;19250;42.646;26.980;2023-04-26T01:52:07;97944.97;;;15.17;100.00
12799;BME280;19250;42.646;26.980;2023-04-26T01:54:34;97946.66;;;15.05;100.00
12799;BME280;19250;42.646;26.980;2023-04-26T01:57:03;97954.13;;;15.03;100.00
12799;BME280;19250;42.646;26.980;2023-04-26T01:59:30;97949.78;;;15.02;100.00
12799;BME280;19250;42.646;26.980;2023-04-26T02:01:58;97942.94;;;15.13;100.00
12799;BME280;19250;42.646;26.980;2023-04-26T02:04:25;97866.41;;;14.33;100.00
12799;BME280;19250;42.646;26.980;2023-04-26T02:06:53;97938.19;;;14.11;100.00
12799;BME280;19250;42.646;26.980;2023-04-26T02:09:20;97934.47;;;13.93;100.00
12799;BME280;19250;42.646;26.980;2023-04-26T02:11:47;97861.28;;;13.33;100.00
12799;BME280;19250;42.646;26.980;2023-04-26T02:14:16;97918.56;;;13.58;100.00
12799;BME280;19250;42.646;26.980;2023-04-26T02:16:43;97912.41;;;13.45;100.00
12799;BME280;19250;42.646;26.980;2023-04-26T02:19:10;97912.81;;;14.01;100.00
12799;BME280;19250;42.646;26.980;2023-04-26T02:21:51;97915.91;;;14.44;100.00
12799;BME280;19250;42.646;26.980;2023-04-26T02:24:19;97898.53;;;14.53;100.00
12799;BME280;19250;42.646;26.980;2023-04-26T02:26:46;97916.09;;;14.49;100.00
12799;BME280;19250;42.646;26.980;2023-04-26T02:29:13;97917.94;;;14.55;100.00
12799;BME280;19250;42.646;26.980;2023-04-26T02:31:42;97919.38;;;14.64;100.00
12799;BME280;19250;42.646;26.980;2023-04-26T02:34:10;97919.53;;;14.76;100.00
12799;BME280;19250;42.646;26.980;2023-04-26T02:36:38;97920.00;;;14.53;100.00
12799;BME280;19250;42.646;26.980;2023-04-26T02:39:05;97902.50;;;14.24;100.00
12799;BME280;19250;42.646;26.980;2023-04-26T02:41:32;97920.66;;;14.15;100.00
12799;BME280;19250;42.646;26.980;2023-04-26T02:44:00;97920.63;;;14.29;100.00
12799;BME280;19250;42.646;26.980;2023-04-26T02:46:27;97919.81;;;14.28;100.00
12799;BME280;19250;42.646;26.980;2023-04-26T02:48:56;97922.72;;;14.27;100.00
12799;BME280;19250;42.646;26.980;2023-04-26T02:51:23;97920.00;;;14.53;100.00
12799;BME280;19250;42.646;26.980;2023-04-26T02:53:50;97916.94;;;14.49;100.00
12799;BME280;19250;42.646;26.980;2023-04-26T02:56:17;97919.81;;;14.48;100.00
12799;BME280;19250;42.646;26.980;2023-04-26T02:58:45;97924.16;;;14.49;100.00
12799;BME280;19250;42.646;26.980;2023-04-26T03:01:12;97921.66;;;14.54;100.00
12799;BME280;19250;42.646;26.980;2023-04-26T03:03:39;97923.56;;;14.34;100.00
12799;BME280;19250;42.646;26.980;2023-04-26T03:06:08;97923.16;;;14.37;100.00
12799;BME280;19250;42.646;26.980;2023-04-26T03:08:36;97921.66;;;14.54;100.00
12799;BME280;19250;42.646;26.980;2023-04-26T03:11:03;97927.19;;;14.59;100.00
12799;BME280;19250;42.646;26.980;2023-04-26T03:13:31;97922.41;;;14.81;100.00
12799;BME280;19250;42.646;26.980;2023-04-26T03:15:58;97924.47;;;14.79;100.00
12799;BME280;19250;42.646;26.980;2023-04-26T03:18:26;97920.44;;;14.30;100.00
12799;BME280;19250;42.646;26.980;2023-04-26T03:20:53;97932.41;;;14.21;100.00
12799;BME280;19250;42.646;26.980;2023-04-26T03:23:22;97926.41;;;14.26;100.00
12799;BME280;19250;42.646;26.980;2023-04-26T03:25:50;97928.47;;;14.50;100.00
12799;BME280;19250;42.646;26.980;2023-04-26T03:28:17;97933.97;;;14.81;100.00
12799;BME280;19250;42.646;26.980;2023-04-26T03:30:44;97942.19;;;14.86;100.00
12799;BME280;19250;42.646;26.980;2023-04-26T03:33:14;97936.81;;;14.86;100.00
12799;BME280;19250;42.646;26.980;2023-04-26T03:35:42;97943.00;;;14.93;100.00
12799;BME280;19250;42.646;26.980;2023-04-26T03:38:09;97935.19;;;14.85;100.00
12799;BME280;19250;42.646;26.980;2023-04-26T03:40:38;97939.44;;;14.02;100.00
12799;BME280;19250;42.646;26.980;2023-04-26T03:43:05;97939.28;;;13.17;100.00
12799;BME280;19250;42.646;26.980;2023-04-26T03:45:33;97933.47;;;13.07;100.00
12799;BME280;19250;42.646;26.980;2023-04-26T03:48:00;97945.53;;;13.44;100.00
12799;BME280;19250;42.646;26.980;2023-04-26T03:50:27;97943.47;;;13.46;100.00
12799;BME280;19250;42.646;26.980;2023-04-26T03:52:54;97944.38;;;14.05;100.00
12799;BME280;19250;42.646;26.980;2023-04-26T03:55:22;97948.72;;;14.39;100.00
12799;BME280;19250;42.646;26.980;2023-04-26T03:57:51;97947.25;;;14.50;100.00
12799;BME280;19250;42.646;26.980;2023-04-26T04:00:19;97947.19;;;14.76;100.00
12799;BME280;19250;42.646;26.980;2023-04-26T04:02:46;97951.16;;;14.67;100.00
12799;BME280;19250;42.646;26.980;2023-04-26T04:05:13;97954.03;;;14.59;100.00
12799;BME280;19250;42.646;26.980;2023-04-26T04:07:40;97908.09;;;14.36;100.00
12799;BME280;19250;42.646;26.980;2023-04-26T04:10:08;97953.81;;;14.74;100.00
12799;BME280;19250;42.646;26.980;2023-04-26T04:12:36;97947.13;;;14.96;100.00
12799;BME280;19250;42.646;26.980;2023-04-26T04:15:06;97965.31;;;14.87;100.00
12799;BME280;19250;42.646;26.980;2023-04-26T04:17:34;97947.94;;;14.96;100.00
12799;BME280;19250;42.646;26.980;2023-04-26T04:20:01;97960.75;;;14.94;100.00
12799;BME280;19250;42.646;26.980;2023-04-26T04:22:29;97966.13;;;14.94;100.00
12799;BME280;19250;42.646;26.980;2023-04-26T04:24:57;97966.16;;;14.81;100.00
12799;BME280;19250;42.646;26.980;2023-04-26T04:27:24;97967.81;;;14.82;100.00
12799;BME280;19250;42.646;26.980;2023-04-26T04:29:52;97965.28;;;15.00;100.00
12799;BME280;19250;42.646;26.980;2023-04-26T04:32:21;97961.50;;;15.14;100.00
12799;BME280;19250;42.646;26.980;2023-04-26T04:34:49;97974.50;;;15.17;100.00
12799;BME280;19250;42.646;26.980;2023-04-26T04:37:18;97973.22;;;15.26;100.00
12799;BME280;19250;42.646;26.980;2023-04-26T04:39:45;97973.09;;;15.08;100.00
12799;BME280;19250;42.646;26.980;2023-04-26T04:42:13;97976.88;;;14.94;100.00
12799;BME280;19250;42.646;26.980;2023-04-26T04:44:40;97978.81;;;15.25;100.00
12799;BME280;19250;42.646;26.980;2023-04-26T04:47:08;97982.09;;;15.27;100.00
12799;BME280;19250;42.646;26.980;2023-04-26T04:49:36;97976.78;;;15.14;100.00
12799;BME280;19250;42.646;26.980;2023-04-26T04:52:04;97981.09;;;15.21;100.00
12799;BME280;19250;42.646;26.980;2023-04-26T04:54:32;97980.38;;;15.01;100.00
12799;BME280;19250;42.646;26.980;2023-04-26T04:56:59;97980.75;;;14.98;100.00
12799;BME280;19250;42.646;26.980;2023-04-26T04:59:27;97983.31;;;15.38;100.00
12799;BME280;19250;42.646;26.980;2023-04-26T05:01:54;97991.00;;;15.72;100.00
12799;BME280;19250;42.646;26.980;2023-04-26T05:04:22;97992.94;;;15.58;100.00
12799;BME280;19250;42.646;26.980;2023-04-26T05:06:50;97986.78;;;15.45;100.00
12799;BME280;19250;42.646;26.980;2023-04-26T05:09:18;97983.81;;;15.15;100.00
12799;BME280;19250;42.646;26.980;2023-04-26T05:11:46;97991.31;;;15.44;100.00
12799;BME280;19250;42.646;26.980;2023-04-26T05:14:13;97992.50;;;15.61;100.00
12799;BME280;19250;42.646;26.980;2023-04-26T05:16:40;97994.47;;;15.35;100.00
12799;BME280;19250;42.646;26.980;2023-04-26T05:19:08;97978.25;;;15.61;100.00
12799;BME280;19250;42.646;26.980;2023-04-26T05:21:35;97989.44;;;15.58;100.00
12799;BME280;19250;42.646;26.980;2023-04-26T05:24:04;97987.75;;;15.63;100.00
12799;BME280;19250;42.646;26.980;2023-04-26T05:26:31;97986.88;;;15.69;100.00
12799;BME280;19250;42.646;26.980;2023-04-26T05:29:01;97995.13;;;15.23;100.00
12799;BME280;19250;42.646;26.980;2023-04-26T05:31:28;97996.06;;;14.98;100.00
12799;BME280;19250;42.646;26.980;2023-04-26T05:33:56;97985.63;;;14.57;100.00
12799;BME280;19250;42.646;26.980;2023-04-26T05:36:23;97996.75;;;14.41;100.00
12799;BME280;19250;42.646;26.980;2023-04-26T05:38:52;97997.59;;;14.48;100.00
12799;BME280;19250;42.646;26.980;2023-04-26T05:41:21;97995.72;;;14.29;100.00
12799;BME280;19250;42.646;26.980;2023-04-26T05:43:48;98002.94;;;14.15;100.00
12799;BME280;19250;42.646;26.980;2023-04-26T05:46:15;97993.66;;;14.24;100.00
12799;BME280;19250;42.646;26.980;2023-04-26T05:48:42;97986.84;;;13.95;100.00
12799;BME280;19250;42.646;26.980;2023-04-26T05:51:10;98003.50;;;13.71;100.00
12799;BME280;19250;42.646;26.980;2023-04-26T05:53:37;98002.88;;;13.82;100.00
12799;BME280;19250;42.646;26.980;2023-04-26T05:56:05;98016.09;;;13.84;100.00
12799;BME280;19250;42.646;26.980;2023-04-26T05:58:34;98017.69;;;13.65;100.00
12799;BME280;19250;42.646;26.980;2023-04-26T06:01:01;98021.63;;;13.69;100.00
12799;BME280;19250;42.646;26.980;2023-04-26T06:03:29;98024.72;;;13.66;100.00
12799;BME280;19250;42.646;26.980;2023-04-26T06:05:56;98025.16;;;13.70;100.00
12799;BME280;19250;42.646;26.980;2023-04-26T06:08:24;98029.94;;;13.33;100.00
12799;BME280;19250;42.646;26.980;2023-04-26T06:10:53;98027.41;;;13.66;100.00
12799;BME280;19250;42.646;26.980;2023-04-26T06:13:20;98029.69;;;13.82;100.00
12799;BME280;19250;42.646;26.980;2023-04-26T06:15:49;98031.13;;;13.72;100.00
12799;BME280;19250;42.646;26.980;2023-04-26T06:18:16;98025.16;;;13.70;100.00
12799;BME280;19250;42.646;26.980;2023-04-26T06:20:44;98020.97;;;13.54;100.00
12799;BME280;19250;42.646;26.980;2023-04-26T06:23:12;98005.97;;;13.12;100.00
12799;BME280;19250;42.646;26.980;2023-04-26T06:25:39;98023.16;;;13.37;100.00
12799;BME280;19250;42.646;26.980;2023-04-26T06:28:09;98024.19;;;13.36;100.00
12799;BME280;19250;42.646;26.980;2023-04-26T06:30:36;98011.00;;;13.35;100.00
12799;BME280;19250;42.646;26.980;2023-04-26T06:33:05;98010.28;;;13.74;100.00
12799;BME280;19250;42.646;26.980;2023-04-26T06:35:38;97980.66;;;13.95;100.00
12799;BME280;19250;42.646;26.980;2023-04-26T06:38:06;98006.22;;;14.04;100.00
12799;BME280;19250;42.646;26.980;2023-04-26T06:40:34;98008.09;;;14.23;100.00
12799;BME280;19250;42.646;26.980;2023-04-26T06:43:01;97981.09;;;14.38;100.00
12799;BME280;19250;42.646;26.980;2023-04-26T06:45:29;98003.75;;;14.75;100.00
12799;BME280;19250;42.646;26.980;2023-04-26T06:47:56;98010.16;;;14.67;100.00
12799;BME280;19250;42.646;26.980;2023-04-26T06:50:26;98014.88;;;14.78;100.00
12799;BME280;19250;42.646;26.980;2023-04-26T06:52:54;98019.72;;;15.20;100.00
12799;BME280;19250;42.646;26.980;2023-04-26T06:55:21;98024.06;;;15.21;100.00
12799;BME280;19250;42.646;26.980;2023-04-26T06:57:48;98020.59;;;15.08;100.00
12799;BME280;19250;42.646;26.980;2023-04-26T07:00:16;98015.19;;;15.14;100.00
12799;BME280;19250;42.646;26.980;2023-04-26T07:02:44;98008.13;;;15.33;100.00
12799;BME280;19250;42.646;26.980;2023-04-26T07:05:11;98010.09;;;15.57;100.00
12799;BME280;19250;42.646;26.980;2023-04-26T07:07:41;98014.28;;;16.16;100.00
12799;BME280;19250;42.646;26.980;2023-04-26T07:10:08;98006.09;;;16.60;100.00
12799;BME280;19250;42.646;26.980;2023-04-26T07:12:36;98023.28;;;16.59;100.00
12799;BME280;19250;42.646;26.980;2023-04-26T07:15:04;98013.97;;;16.30;100.00
12799;BME280;19250;42.646;26.980;2023-04-26T07:17:32;98011.81;;;16.14;100.00
12799;BME280;19250;42.646;26.980;2023-04-26T07:19:59;98024.94;;;17.58;100.00
12799;BME280;19250;42.646;26.980;2023-04-26T07:22:27;98028.41;;;18.06;100.00
12799;BME280;19250;42.646;26.980;2023-04-26T07:24:56;98030.50;;;18.45;100.00
12799;BME280;19250;42.646;26.980;2023-04-26T07:27:23;98034.53;;;18.66;100.00
12799;BME280;19250;42.646;26.980;2023-04-26T07:29:53;98027.06;;;18.38;100.00
12799;BME280;19250;42.646;26.980;2023-04-26T07:32:21;98027.81;;;19.38;100.00
12799;BME280;19250;42.646;26.980;2023-04-26T07:34:48;98029.94;;;18.78;100.00
12799;BME280;19250;42.646;26.980;2023-04-26T07:37:15;98025.75;;;18.29;100.00
12799;BME280;19250;42.646;26.980;2023-04-26T07:39:42;98029.97;;;19.01;100.00
12799;BME280;19250;42.646;26.980;2023-04-26T07:42:11;98041.19;;;19.33;95.90
12799;BME280;19250;42.646;26.980;2023-04-26T07:44:38;98030.81;;;19.93;97.12
12799;BME280;19250;42.646;26.980;2023-04-26T07:47:10;97981.97;;;19.43;88.74
12799;BME280;19250;42.646;26.980;2023-04-26T07:49:38;98041.97;;;19.57;90.98
12799;BME280;19250;42.646;26.980;2023-04-26T07:52:07;98040.50;;;19.49;87.71
12799;BME280;19250;42.646;26.980;2023-04-26T07:54:34;98035.19;;;19.54;91.07
12799;BME280;19250;42.646;26.980;2023-04-26T07:57:01;98041.56;;;18.56;87.47
12799;BME280;19250;42.646;26.980;2023-04-26T07:59:30;98036.28;;;18.72;95.25
12799;BME280;19250;42.646;26.980;2023-04-26T08:01:57;98038.31;;;18.24;88.13
12799;BME280;19250;42.646;26.980;2023-04-26T08:04:33;98045.56;;;19.11;86.03
12799;BME280;19250;42.646;26.980;2023-04-26T08:07:00;98034.19;;;18.86;87.96
12799;BME280;19250;42.646;26.980;2023-04-26T08:09:28;98037.44;;;19.34;89.54
12799;BME280;19250;42.646;26.980;2023-04-26T08:11:55;98037.31;;;20.37;81.15
12799;BME280;19250;42.646;26.980;2023-04-26T08:14:23;98041.66;;;20.10;72.61
12799;BME280;19250;42.646;26.980;2023-04-26T08:16:52;98035.03;;;20.29;75.97
12799;BME280;19250;42.646;26.980;2023-04-26T08:19:19;98042.69;;;19.92;74.50
12799;BME280;19250;42.646;26.980;2023-04-26T08:21:46;98025.13;;;19.67;76.00
12799;BME280;19250;42.646;26.980;2023-04-26T08:24:13;98023.94;;;18.53;75.67
12799;BME280;19250;42.646;26.980;2023-04-26T08:26:41;98042.31;;;18.74;72.34
12799;BME280;19250;42.646;26.980;2023-04-26T08:29:08;98039.00;;;19.07;72.57
12799;BME280;19250;42.646;26.980;2023-04-26T08:31:35;98005.03;;;19.23;70.55
12799;BME280;19250;42.646;26.980;2023-04-26T08:34:04;98041.94;;;20.25;68.84
12799;BME280;19250;42.646;26.980;2023-04-26T08:36:35;98041.84;;;20.65;62.54
12799;BME280;19250;42.646;26.980;2023-04-26T08:39:02;98051.03;;;20.19;57.55
12799;BME280;19250;42.646;26.980;2023-04-26T08:41:34;98044.06;;;20.68;59.52
12799;BME280;19250;42.646;26.980;2023-04-26T08:44:03;98043.56;;;20.88;57.68
12799;BME280;19250;42.646;26.980;2023-04-26T08:46:35;98047.63;;;21.07;54.36
12799;BME280;19250;42.646;26.980;2023-04-26T08:49:14;98032.84;;;20.98;53.04
12799;BME280;19250;42.646;26.980;2023-04-26T08:51:44;98040.78;;;21.81;52.88
12799;BME280;19250;42.646;26.980;2023-04-26T08:54:14;98039.47;;;20.85;55.62
12799;BME280;19250;42.646;26.980;2023-04-26T08:56:43;98042.28;;;21.50;49.72
12799;BME280;19250;42.646;26.980;2023-04-26T08:59:11;98039.53;;;21.45;53.12
12799;BME280;19250;42.646;26.980;2023-04-26T09:01:39;98047.84;;;21.00;50.89
12799;BME280;19250;42.646;26.980;2023-04-26T09:04:08;98043.16;;;20.62;52.65
12799;BME280;19250;42.646;26.980;2023-04-26T09:06:36;98039.53;;;20.74;52.91
12799;BME280;19250;42.646;26.980;2023-04-26T09:09:05;98043.72;;;20.64;54.17
12799;BME280;19250;42.646;26.980;2023-04-26T09:11:52;98044.06;;;20.68;53.44
12799;BME280;19250;42.646;26.980;2023-04-26T09:14:20;98040.34;;;21.46;50.69
12799;BME280;19250;42.646;26.980;2023-04-26T09:16:48;98040.53;;;20.84;49.76
12799;BME280;19250;42.646;26.980;2023-04-26T09:19:16;98031.16;;;20.58;54.55
12799;BME280;19250;42.646;26.980;2023-04-26T09:21:45;98038.78;;;20.28;54.05
12799;BME280;19250;42.646;26.980;2023-04-26T09:24:12;98030.16;;;20.31;55.17
12799;BME280;19250;42.646;26.980;2023-04-26T09:26:40;98029.47;;;20.69;54.59
12799;BME280;19250;42.646;26.980;2023-04-26T09:29:12;98033.78;;;20.87;49.11
12799;BME280;19250;42.646;26.980;2023-04-26T09:31:42;98027.91;;;20.73;50.90
12799;BME280;19250;42.646;26.980;2023-04-26T09:34:10;98023.97;;;20.02;56.32
12799;BME280;19250;42.646;26.980;2023-04-26T09:36:50;98022.13;;;19.51;58.40
12799;BME280;19250;42.646;26.980;2023-04-26T09:39:33;98021.59;;;20.23;54.90
12799;BME280;19250;42.646;26.980;2023-04-26T09:42:02;98027.75;;;20.18;54.44
12799;BME280;19250;42.646;26.980;2023-04-26T09:44:30;98025.13;;;20.23;53.69
12799;BME280;19250;42.646;26.980;2023-04-26T09:47:02;98022.75;;;18.37;54.94
12799;BME280;19250;42.646;26.980;2023-04-26T09:49:32;98006.22;;;19.03;51.69
12799;BME280;19250;42.646;26.980;2023-04-26T09:52:05;98022.88;;;19.35;46.91
12799;BME280;19250;42.646;26.980;2023-04-26T09:54:43;98026.41;;;19.47;46.45
12799;BME280;19250;42.646;26.980;2023-04-26T09:57:12;98027.78;;;19.90;49.31
12799;BME280;19250;42.646;26.980;2023-04-26T09:59:41;98022.44;;;19.95;48.66
12799;BME280;19250;42.646;26.980;2023-04-26T10:02:14;98010.84;;;18.68;54.47
12799;BME280;19250;42.646;26.980;2023-04-26T10:04:46;98032.78;;;17.89;55.26
12799;BME280;19250;42.646;26.980;2023-04-26T10:07:16;97952.38;;;18.62;54.71
12799;BME280;19250;42.646;26.980;2023-04-26T10:09:44;98030.56;;;18.80;50.87
12799;BME280;19250;42.646;26.980;2023-04-26T10:12:13;98014.81;;;18.89;48.80
12799;BME280;19250;42.646;26.980;2023-04-26T10:14:41;98020.25;;;18.24;51.20
12799;BME280;19250;42.646;26.980;2023-04-26T10:17:08;98022.16;;;19.28;48.18
12799;BME280;19250;42.646;26.980;2023-04-26T10:19:38;98023.56;;;20.10;45.45
12799;BME280;19250;42.646;26.980;2023-04-26T10:22:08;98026.09;;;18.21;48.99
12799;BME280;19250;42.646;26.980;2023-04-26T10:24:38;98018.88;;;19.26;48.68
12799;BME280;19250;42.646;26.980;2023-04-26T10:27:05;98018.28;;;19.76;46.38
12799;BME280;19250;42.646;26.980;2023-04-26T10:30:05;98015.41;;;20.55;45.91
12799;BME280;19250;42.646;26.980;2023-04-26T10:33:10;98016.88;;;20.96;45.60
12799;BME280;19250;42.646;26.980;2023-04-26T10:36:07;98012.66;;;21.44;43.94
12799;BME280;19250;42.646;26.980;2023-04-26T10:38:37;98007.47;;;21.86;43.46
12799;BME280;19250;42.646;26.980;2023-04-26T10:41:28;98005.78;;;21.58;41.79
12799;BME280;19250;42.646;26.980;2023-04-26T10:44:00;98006.34;;;22.08;41.52
12799;BME280;19250;42.646;26.980;2023-04-26T10:46:49;98005.28;;;23.10;38.40
12799;BME280;19250;42.646;26.980;2023-04-26T10:49:19;97982.38;;;22.64;38.20
12799;BME280;19250;42.646;26.980;2023-04-26T10:52:09;98006.25;;;22.25;39.02
12799;BME280;19250;42.646;26.980;2023-04-26T10:54:51;98000.47;;;22.80;38.22
12799;BME280;19250;42.646;26.980;2023-04-26T10:57:20;97994.16;;;23.63;37.22
12799;BME280;19250;42.646;26.980;2023-04-26T11:00:20;97997.84;;;24.29;36.68
12799;BME280;19250;42.646;26.980;2023-04-26T11:03:01;97988.06;;;25.73;33.78
12799;BME280;19250;42.646;26.980;2023-04-26T11:05:51;97979.75;;;25.29;33.83
12799;BME280;19250;42.646;26.980;2023-04-26T11:08:23;97973.59;;;24.73;35.68
12799;BME280;19250;42.646;26.980;2023-04-26T11:10:56;97970.81;;;22.73;38.97
12799;BME280;19250;42.646;26.980;2023-04-26T11:13:25;97976.06;;;24.95;36.33
12799;BME280;19250;42.646;26.980;2023-04-26T11:15:53;97974.84;;;25.95;34.19
12799;BME280;19250;42.646;26.980;2023-04-26T11:18:25;97963.03;;;27.54;31.48
12799;BME280;19250;42.646;26.980;2023-04-26T11:20:52;97972.09;;;27.26;31.84
12799;BME280;19250;42.646;26.980;2023-04-26T11:23:20;97966.75;;;28.38;30.62
12799;BME280;19250;42.646;26.980;2023-04-26T11:25:48;97969.47;;;27.16;31.25
12799;BME280;19250;42.646;26.980;2023-04-26T11:28:17;97942.63;;;25.87;33.31
12799;BME280;19250;42.646;26.980;2023-04-26T11:30:47;97963.22;;;26.19;33.07
12799;BME280;19250;42.646;26.980;2023-04-26T11:33:18;97959.13;;;28.35;30.26
12799;BME280;19250;42.646;26.980;2023-04-26T11:35:48;97959.56;;;29.61;28.55
12799;BME280;19250;42.646;26.980;2023-04-26T11:38:16;97962.59;;;29.73;28.53
12799;BME280;19250;42.646;26.980;2023-04-26T11:40:43;97960.25;;;29.94;28.03
12799;BME280;19250;42.646;26.980;2023-04-26T11:43:12;97957.16;;;28.03;32.14
12799;BME280;19250;42.646;26.980;2023-04-26T11:45:40;97955.78;;;27.16;34.97
12799;BME280;19250;42.646;26.980;2023-04-26T11:48:11;97949.88;;;26.51;36.22
12799;BME280;19250;42.646;26.980;2023-04-26T11:50:40;97957.81;;;25.65;37.25
12799;BME280;19250;42.646;26.980;2023-04-26T11:53:07;97953.16;;;24.86;38.91
12799;BME280;19250;42.646;26.980;2023-04-26T11:55:35;97949.75;;;22.96;43.30
12799;BME280;19250;42.646;26.980;2023-04-26T11:58:09;97948.50;;;22.40;43.43
12799;BME280;19250;42.646;26.980;2023-04-26T12:00:37;97958.03;;;21.84;44.40
12799;BME280;19250;42.646;26.980;2023-04-26T12:03:22;97960.78;;;20.97;46.18
12799;BME280;19250;42.646;26.980;2023-04-26T12:05:53;97949.16;;;21.01;47.64
12799;BME280;19250;42.646;26.980;2023-04-26T12:08:23;97964.88;;;20.83;53.04
12799;BME280;19250;42.646;26.980;2023-04-26T12:10:50;97962.00;;;20.34;60.59
12799;BME280;19250;42.646;26.980;2023-04-26T12:13:18;97955.59;;;19.79;66.38
12799;BME280;19250;42.646;26.980;2023-04-26T12:15:45;97957.47;;;19.10;70.79
12799;BME280;19250;42.646;26.980;2023-04-26T12:18:15;97954.78;;;18.98;75.65
12799;BME280;19250;42.646;26.980;2023-04-26T12:20:44;97954.34;;;18.67;78.00
12799;BME280;19250;42.646;26.980;2023-04-26T12:23:13;97949.91;;;18.49;81.85
12799;BME280;19250;42.646;26.980;2023-04-26T12:25:51;97952.44;;;18.32;87.98
12799;BME280;19250;42.646;26.980;2023-04-26T12:28:19;97946.19;;;18.20;90.83
12799;BME280;19250;42.646;26.980;2023-04-26T12:30:47;97947.63;;;17.70;98.51
12799;BME280;19250;42.646;26.980;2023-04-26T12:33:15;97944.47;;;17.73;98.21
12799;BME280;19250;42.646;26.980;2023-04-26T12:35:46;97954.25;;;17.85;98.94
12799;BME280;19250;42.646;26.980;2023-04-26T12:38:13;97948.19;;;18.13;93.92
12799;BME280;19250;42.646;26.980;2023-04-26T12:40:41;97932.06;;;17.95;89.98
12799;BME280;19250;42.646;26.980;2023-04-26T12:43:09;97942.91;;;18.18;89.56
12799;BME280;19250;42.646;26.980;2023-04-26T12:45:36;97940.31;;;18.00;87.25
12799;BME280;19250;42.646;26.980;2023-04-26T12:48:04;97943.59;;;18.14;84.63
12799;BME280;19250;42.646;26.980;2023-04-26T12:50:32;97936.69;;;18.06;86.59
12799;BME280;19250;42.646;26.980;2023-04-26T12:53:01;97937.59;;;17.88;87.80